Time;durP1;ratioP1;P1;durP2;ratioP2;P2;SDS_P1;SDS_P2;PMS_P1;PMS_P2;Temp;Humidity;BMP_temperature;BMP_pressure;BME280_temperature;BME280_humidity;BME280_pressure;Samples;Min_cycle;Max_cycle;Signal;HPM_P1;HPM_P2
2022/06/01 00:02:08;;;;;;;11.25;6.90;;;14.70;61.20;;;;;;9187949;19;20018;-64
2022/06/01 00:05:15;;;;;;;10.25;6.65;;;14.70;61.30;;;;;;9187120;19;20040;-63
2022/06/01 00:08:23;;;;;;;11.50;7.60;;;14.70;61.40;;;;;;9185504;19;20007;-64
2022/06/01 00:11:29;;;;;;;11.13;8.00;;;14.70;61.50;;;;;;9186897;19;20086;-64
2022/06/01 00:14:34;;;;;;;12.80;7.15;;;14.60;61.50;;;;;;9186689;19;20093;-66
2022/06/01 00:17:40;;;;;;;12.38;7.05;;;14.70;61.60;;;;;;9185862;19;20480;-66
2022/06/01 00:20:46;;;;;;;14.20;8.32;;;14.60;61.50;;;;;;9182187;19;20365;-63
2022/06/01 00:23:54;;;;;;;13.52;7.50;;;14.60;61.60;;;;;;9184990;19;20049;-66
2022/06/01 00:26:59;;;;;;;10.55;7.65;;;14.60;62.50;;;;;;9185635;19;20023;-66
2022/06/01 00:30:11;;;;;;;11.63;7.95;;;14.60;61.80;;;;;;9183136;19;20018;-65
2022/06/01 00:33:16;;;;;;;9.05;6.88;;;14.60;61.90;;;;;;9187644;19;20018;-66
2022/06/01 00:36:22;;;;;;;12.07;7.90;;;14.50;62.00;;;;;;9186930;19;20018;-65
2022/06/01 00:39:32;;;;;;;11.07;7.63;;;14.50;62.00;;;;;;9188261;19;20024;-65
2022/06/01 00:42:40;;;;;;;14.18;7.32;;;14.50;62.10;;;;;;9185761;19;20026;-65
2022/06/01 00:45:45;;;;;;;11.93;6.97;;;14.50;62.20;;;;;;9182956;19;20497;-66
2022/06/01 00:48:55;;;;;;;10.70;7.38;;;14.50;62.30;;;;;;9184735;19;20022;-64
2022/06/01 00:52:00;;;;;;;14.65;8.15;;;14.40;62.30;;;;;;9185457;19;20022;-65
2022/06/01 00:55:16;;;;;;;14.93;8.15;;;14.40;62.40;;;;;;9184241;19;20018;-66
2022/06/01 00:58:24;;;;;;;14.13;8.77;;;14.40;62.50;;;;;;9185578;19;20086;-63
2022/06/01 01:01:30;;;;;;;12.40;7.85;;;14.40;62.40;;;;;;9185248;19;20053;-64
2022/06/01 01:04:38;;;;;;;11.63;8.20;;;14.40;62.60;;;;;;9184977;19;20090;-65
2022/06/01 01:07:45;;;;;;;10.95;7.22;;;14.50;62.70;;;;;;9183253;19;20025;-65
2022/06/01 01:10:54;;;;;;;11.43;7.97;;;14.40;62.70;;;;;;9183630;19;20023;-64
2022/06/01 01:14:01;;;;;;;16.25;8.70;;;14.40;62.80;;;;;;9184450;19;20014;-64
2022/06/01 01:17:08;;;;;;;10.25;7.47;;;14.40;62.90;;;;;;9183563;19;20113;-63
2022/06/01 01:20:13;;;;;;;12.00;8.25;;;14.40;63.00;;;;;;9184110;19;20476;-64
2022/06/01 01:23:31;;;;;;;13.27;8.98;;;14.30;62.90;;;;;;9180910;19;20018;-64
2022/06/01 01:26:39;;;;;;;14.38;8.50;;;14.30;63.10;;;;;;9184962;19;20082;-64
2022/06/01 01:29:46;;;;;;;12.48;7.78;;;14.30;63.10;;;;;;9182195;19;20085;-65
2022/06/01 01:32:55;;;;;;;10.57;8.05;;;14.30;63.10;;;;;;9184597;19;20019;-65
2022/06/01 01:36:06;;;;;;;11.63;8.10;;;14.20;63.10;;;;;;9185005;19;20010;-64
2022/06/01 01:39:16;;;;;;;11.38;8.60;;;14.20;63.30;;;;;;9182639;19;20510;-63
2022/06/01 01:42:24;;;;;;;12.57;8.73;;;14.20;63.40;;;;;;9181506;19;20021;-66
2022/06/01 01:45:32;;;;;;;11.52;8.50;;;14.20;63.40;;;;;;9182968;19;20088;-63
2022/06/01 01:48:39;;;;;;;14.85;8.60;;;14.10;63.40;;;;;;9183283;19;20105;-65
2022/06/01 01:51:45;;;;;;;12.13;8.45;;;14.10;63.50;;;;;;9184302;19;20015;-63
2022/06/01 01:54:55;;;;;;;12.52;9.02;;;14.10;63.50;;;;;;9183501;19;20038;-63
2022/06/01 01:58:14;;;;;;;12.50;8.80;;;14.10;63.70;;;;;;9184616;19;20011;-66
2022/06/01 02:01:26;;;;;;;16.88;9.63;;;14.10;64.00;;;;;;9183647;19;20526;-63
2022/06/01 02:08:04;;;;;;;12.77;9.43;;;14.10;64.00;;;;;;9180554;19;20372;-64
2022/06/01 02:14:38;;;;;;;14.55;10.80;;;14.10;64.20;;;;;;9181829;19;20011;-61
2022/06/01 02:17:49;;;;;;;16.95;11.45;;;14.10;64.40;;;;;;9181021;19;20504;-62
2022/06/01 02:21:00;;;;;;;15.65;11.70;;;14.00;64.50;;;;;;9178857;19;20052;-63
2022/06/01 02:24:07;;;;;;;15.77;11.98;;;14.00;64.70;;;;;;9181026;19;20026;-64
2022/06/01 02:27:13;;;;;;;20.70;12.65;;;14.00;64.70;;;;;;9180858;19;20014;-61
2022/06/01 02:30:23;;;;;;;18.13;12.18;;;14.00;64.90;;;;;;9181739;19;20010;-62
2022/06/01 02:33:33;;;;;;;18.77;11.63;;;14.00;65.20;;;;;;9182890;19;20014;-62
2022/06/01 02:36:39;;;;;;;14.90;11.63;;;14.00;65.20;;;;;;9181229;19;20022;-62
2022/06/01 02:39:52;;;;;;;16.38;11.60;;;14.00;65.30;;;;;;9181347;19;20015;-64
2022/06/01 02:42:57;;;;;;;18.15;12.18;;;13.90;65.40;;;;;;9180215;19;20022;-62
2022/06/01 02:46:05;;;;;;;18.33;12.35;;;14.00;65.50;;;;;;9182300;19;20045;-62
2022/06/01 02:49:10;;;;;;;15.43;12.20;;;13.90;65.70;;;;;;9179149;19;20017;-62
2022/06/01 02:52:15;;;;;;;17.73;11.75;;;13.90;65.70;;;;;;9179472;19;20015;-61
2022/06/01 02:55:21;;;;;;;16.20;12.02;;;13.90;65.80;;;;;;9181176;19;20472;-63
2022/06/01 02:58:26;;;;;;;17.88;11.98;;;13.90;65.90;;;;;;9181483;19;20086;-62
2022/06/01 03:01:36;;;;;;;18.85;13.30;;;13.90;66.00;;;;;;9181574;19;20018;-62
2022/06/01 03:04:43;;;;;;;15.70;12.23;;;13.80;66.00;;;;;;9181661;19;20492;-62
2022/06/01 03:07:49;;;;;;;16.98;12.10;;;13.80;66.10;;;;;;9178438;19;20018;-63
2022/06/01 03:10:54;;;;;;;17.75;12.88;;;13.80;66.20;;;;;;9179982;19;20014;-63
2022/06/01 03:13:59;;;;;;;17.58;12.98;;;13.80;66.20;;;;;;9179018;19;20015;-61
2022/06/01 03:17:08;;;;;;;25.83;13.57;;;13.80;66.30;;;;;;9181665;19;20018;-61
2022/06/01 03:20:16;;;;;;;17.48;12.20;;;13.80;66.60;;;;;;9179022;19;20394;-63
2022/06/01 03:23:21;;;;;;;15.95;12.68;;;13.80;66.60;;;;;;9177153;19;20021;-62
2022/06/01 03:26:26;;;;;;;17.25;12.02;;;13.70;66.50;;;;;;9180536;19;20090;-64
2022/06/01 03:29:32;;;;;;;16.58;12.07;;;13.70;66.60;;;;;;9179657;19;20018;-63
2022/06/01 03:32:40;;;;;;;17.98;13.52;;;13.70;66.70;;;;;;9177227;19;20018;-62
2022/06/01 03:35:45;;;;;;;20.27;12.65;;;13.70;66.80;;;;;;9179884;19;20033;-61
2022/06/01 03:38:51;;;;;;;17.55;11.57;;;13.70;66.80;;;;;;9178008;19;20493;-63
2022/06/01 03:41:56;;;;;;;21.05;13.00;;;13.70;66.80;;;;;;9180872;19;20022;-63
2022/06/01 03:48:23;;;;;;;18.33;12.23;;;13.60;67.00;;;;;;9180323;19;20014;-61
2022/06/01 03:51:28;;;;;;;18.63;13.05;;;13.60;67.10;;;;;;9176406;19;20077;-62
2022/06/01 03:54:33;;;;;;;23.40;14.45;;;13.60;67.10;;;;;;9183187;19;20093;-62
2022/06/01 03:57:38;;;;;;;20.20;13.75;;;13.60;67.20;;;;;;9188535;19;20021;-62
2022/06/01 04:00:45;;;;;;;19.10;12.85;;;13.50;67.30;;;;;;9186508;19;20030;-62
2022/06/01 04:03:53;;;;;;;20.95;13.75;;;13.50;67.40;;;;;;9187232;19;20364;-62
2022/06/01 04:06:59;;;;;;;20.83;13.85;;;13.50;67.50;;;;;;9188002;19;20028;-62
2022/06/01 04:10:08;;;;;;;21.25;14.52;;;13.50;67.60;;;;;;9183333;19;20057;-62
2022/06/01 04:13:14;;;;;;;21.50;14.20;;;13.50;67.70;;;;;;9188259;19;20480;-62
2022/06/01 04:16:20;;;;;;;20.55;15.32;;;13.50;67.80;;;;;;9186882;19;20011;-62
2022/06/01 04:19:28;;;;;;;20.17;14.90;;;13.50;67.90;;;;;;9186630;19;20015;-65
2022/06/01 04:22:34;;;;;;;22.80;15.57;;;13.50;68.10;;;;;;9181503;19;20488;-63
2022/06/01 04:25:39;;;;;;;19.75;14.20;;;13.50;68.00;;;;;;9186587;19;20013;-64
2022/06/01 04:28:44;;;;;;;22.42;14.75;;;13.50;68.10;;;;;;9187335;19;20019;-62
2022/06/01 04:31:50;;;;;;;26.05;15.70;;;13.50;68.10;;;;;;9184220;19;20018;-62
2022/06/01 04:34:58;;;;;;;17.88;14.45;;;13.40;68.10;;;;;;9184349;19;20021;-62
2022/06/01 04:38:15;;;;;;;19.20;15.30;;;13.50;68.30;;;;;;9185405;19;20498;-62
2022/06/01 04:41:20;;;;;;;19.30;15.20;;;13.40;68.40;;;;;;9185327;19;20020;-63
2022/06/01 04:44:27;;;;;;;21.95;15.60;;;13.40;68.30;;;;;;9185406;19;20089;-62
2022/06/01 04:47:32;;;;;;;19.08;15.15;;;13.40;68.40;;;;;;9185305;19;20031;-62
2022/06/01 04:50:42;;;;;;;22.38;15.30;;;13.40;68.40;;;;;;9185950;19;20086;-63
2022/06/01 04:53:48;;;;;;;20.50;15.00;;;13.40;68.70;;;;;;9186266;19;20018;-63
2022/06/01 04:56:53;;;;;;;19.17;15.52;;;13.40;68.60;;;;;;9184349;19;20010;-62
2022/06/01 04:59:58;;;;;;;23.75;16.10;;;13.40;68.70;;;;;;9186241;19;20500;-63
2022/06/01 05:03:04;;;;;;;23.77;16.60;;;13.40;68.70;;;;;;9183365;19;20011;-63
2022/06/01 05:06:12;;;;;;;22.35;15.55;;;13.40;68.80;;;;;;9183799;19;20024;-64
2022/06/01 05:09:17;;;;;;;23.00;16.60;;;13.40;68.90;;;;;;9186190;19;20018;-63
2022/06/01 05:12:23;;;;;;;22.75;17.38;;;13.40;68.90;;;;;;9182781;19;20010;-62
2022/06/01 05:15:28;;;;;;;24.52;17.02;;;13.40;69.00;;;;;;9185796;19;20011;-63
2022/06/01 05:18:33;;;;;;;25.48;18.40;;;13.40;69.00;;;;;;9183719;19;20011;-64
2022/06/01 05:21:41;;;;;;;23.13;17.10;;;13.40;69.10;;;;;;9179894;19;20010;-63
2022/06/01 05:24:46;;;;;;;25.17;17.77;;;13.40;69.30;;;;;;9184938;19;20050;-62
2022/06/01 05:27:51;;;;;;;26.35;18.33;;;13.40;69.30;;;;;;9183276;19;20353;-62
2022/06/01 05:30:59;;;;;;;25.52;18.35;;;13.40;69.40;;;;;;9183616;19;20018;-63
2022/06/01 05:34:04;;;;;;;24.30;17.52;;;13.40;69.70;;;;;;9184875;19;20393;-63
2022/06/01 05:37:12;;;;;;;22.92;16.85;;;13.40;69.70;;;;;;9182884;19;20475;-63
2022/06/01 05:40:19;;;;;;;22.83;16.00;;;13.40;70.40;;;;;;9182774;19;20018;-61
2022/06/01 05:43:24;;;;;;;19.83;15.43;;;13.50;69.80;;;;;;9184834;19;20014;-67
2022/06/01 05:46:30;;;;;;;19.35;14.27;;;13.50;69.90;;;;;;9182360;19;20010;-68
2022/06/01 05:49:36;;;;;;;20.13;15.60;;;13.50;69.90;;;;;;9175774;19;20599;-66
2022/06/01 05:52:44;;;;;;;18.05;13.15;;;13.60;69.90;;;;;;9175067;19;20018;-65
2022/06/01 05:55:49;;;;;;;17.50;12.30;;;13.60;70.10;;;;;;9177513;19;20010;-66
2022/06/01 05:58:54;;;;;;;14.15;10.32;;;13.70;70.00;;;;;;9175704;19;20019;-67
2022/06/01 06:01:59;;;;;;;14.80;10.50;;;13.80;70.10;;;;;;9177298;19;20496;-67
2022/06/01 06:06:11;;;;;;;15.80;10.40;;;13.80;70.00;;;;;;9177761;19;20045;-67
2022/06/01 06:08:34;;;;;;;21.15;11.20;;;13.80;70.10;;;;;;9176936;19;20346;-66
2022/06/01 06:11:41;;;;;;;14.77;10.32;;;13.90;70.10;;;;;;9175405;19;20025;-66
2022/06/01 06:14:47;;;;;;;14.93;11.30;;;13.90;70.10;;;;;;9176069;19;20010;-65
2022/06/01 06:17:53;;;;;;;17.83;11.52;;;14.00;70.00;;;;;;9176669;19;20086;-67
2022/06/01 06:20:58;;;;;;;16.00;11.25;;;14.10;70.10;;;;;;9166880;19;20032;-67
2022/06/01 06:24:08;;;;;;;14.50;10.70;;;14.10;70.10;;;;;;9177067;19;20113;-68
2022/06/01 06:27:13;;;;;;;16.85;11.32;;;14.20;70.10;;;;;;9180381;19;20010;-66
2022/06/01 06:30:19;;;;;;;16.20;12.00;;;14.30;70.00;;;;;;9182214;19;20036;-67
2022/06/01 06:33:24;;;;;;;16.75;12.52;;;14.30;70.00;;;;;;9175886;19;20364;-66
2022/06/01 06:36:30;;;;;;;24.20;13.73;;;14.40;70.00;;;;;;9176089;19;20018;-67
2022/06/01 06:39:37;;;;;;;19.42;12.82;;;14.50;70.70;;;;;;9173972;19;20025;-65
2022/06/01 06:42:44;;;;;;;20.08;12.40;;;14.50;70.10;;;;;;9180398;19;20480;-67
2022/06/01 06:45:51;;;;;;;19.17;12.13;;;14.60;70.10;;;;;;9180679;19;20022;-67
2022/06/01 06:49:00;;;;;;;17.90;11.98;;;14.60;70.00;;;;;;9180151;19;20021;-66
2022/06/01 06:52:12;;;;;;;14.82;8.88;;;14.70;69.90;;;;;;9179126;19;20003;-67
2022/06/01 06:55:20;;;;;;;18.67;12.55;;;14.80;69.80;;;;;;9180970;19;20334;-66
2022/06/01 06:58:26;;;;;;;14.77;11.05;;;14.90;70.20;;;;;;9182643;19;20018;-67
2022/06/01 07:01:32;;;;;;;16.17;11.85;;;14.90;70.10;;;;;;9182478;19;20433;-66
2022/06/01 07:04:37;;;;;;;18.25;11.13;;;15.00;70.00;;;;;;9181756;19;20379;-65
2022/06/01 07:07:43;;;;;;;18.25;10.48;;;15.10;69.90;;;;;;9178514;19;20014;-65
2022/06/01 07:10:51;;;;;;;16.88;10.90;;;15.20;69.80;;;;;;9178565;19;20074;-65
2022/06/01 07:13:56;;;;;;;19.05;11.18;;;15.30;69.90;;;;;;9179851;19;20363;-68
2022/06/01 07:17:02;;;;;;;15.48;11.40;;;15.40;69.80;;;;;;9180500;19;20018;-67
2022/06/01 07:20:08;;;;;;;20.25;11.60;;;15.60;69.90;;;;;;9182688;19;20018;-67
2022/06/01 07:23:13;;;;;;;14.93;11.00;;;15.70;69.80;;;;;;9178105;19;20839;-69
2022/06/01 07:26:24;;;;;;;14.05;10.73;;;15.90;69.80;;;;;;9179688;19;20006;-66
2022/06/01 07:29:29;;;;;;;14.38;9.48;;;16.00;69.70;;;;;;9185271;19;20345;-67
2022/06/01 07:32:35;;;;;;;11.73;8.80;;;16.20;69.50;;;;;;9185251;19;20019;-68
2022/06/01 07:35:40;;;;;;;15.60;10.48;;;16.30;69.20;;;;;;9190444;19;20074;-67
2022/06/01 07:45:28;;;;;;;9.00;6.43;;;16.60;68.80;;;;;;9181845;19;20021;-67
2022/06/01 07:48:35;;;;;;;7.43;5.85;;;16.60;68.50;;;;;;9177981;19;20019;-68
2022/06/01 07:52:03;;;;;;;8.52;5.70;;;16.70;68.80;;;;;;9181382;19;20042;-67
2022/06/01 07:55:10;;;;;;;7.70;6.25;;;16.80;68.20;;;;;;9179580;19;20027;-67
2022/06/01 07:58:19;;;;;;;9.95;6.35;;;16.80;68.10;;;;;;9179683;19;20032;-66
2022/06/01 08:01:27;;;;;;;11.35;7.13;;;16.90;68.20;;;;;;9180010;19;20025;-68
2022/06/01 08:04:33;;;;;;;11.57;6.05;;;17.00;68.20;;;;;;9181393;19;20494;-66
2022/06/01 08:07:46;;;;;;;10.63;5.50;;;17.10;68.10;;;;;;9181479;19;20022;-65
2022/06/01 08:10:51;;;;;;;7.10;4.55;;;17.20;68.00;;;;;;9177294;19;20026;-67
2022/06/01 08:13:59;;;;;;;5.97;3.97;;;17.40;67.90;;;;;;9175067;19;20027;-69
2022/06/01 08:17:08;;;;;;;5.70;4.05;;;17.50;67.80;;;;;;9181735;19;20018;-67
2022/06/01 08:20:14;;;;;;;8.13;4.25;;;17.70;67.60;;;;;;9182565;19;20085;-69
2022/06/01 08:23:26;;;;;;;4.32;3.53;;;17.90;67.40;;;;;;9179632;19;20018;-68
2022/06/01 08:26:32;;;;;;;4.45;3.50;;;18.00;67.10;;;;;;9178151;19;20006;-68
2022/06/01 08:29:44;;;;;;;6.82;3.65;;;18.20;66.80;;;;;;9179150;19;20476;-69
2022/06/01 08:32:52;;;;;;;4.60;2.78;;;18.40;66.40;;;;;;9178696;19;20913;-67
2022/06/01 08:35:57;;;;;;;6.28;2.97;;;18.50;66.10;;;;;;9182741;19;20014;-67
2022/06/01 08:39:06;;;;;;;6.80;3.45;;;18.70;66.00;;;;;;9179300;19;20022;-68
2022/06/01 08:42:15;;;;;;;6.45;3.58;;;18.80;65.70;;;;;;9177281;19;20011;-70
2022/06/01 08:45:26;;;;;;;5.50;3.15;;;18.90;65.50;;;;;;9179525;19;20022;-67
2022/06/01 08:48:35;;;;;;;6.15;3.13;;;19.00;65.30;;;;;;9176846;19;20435;-66
2022/06/01 08:51:40;;;;;;;5.22;2.83;;;19.10;65.10;;;;;;9177984;19;20103;-69
2022/06/01 08:54:45;;;;;;;3.70;2.70;;;19.30;65.00;;;;;;9175564;19;20037;-68
2022/06/01 08:58:19;;;;;;;4.82;2.88;;;19.40;64.70;;;;;;9178829;19;20086;-70
2022/06/01 09:01:32;;;;;;;9.82;4.13;;;19.50;64.00;;;;;;9176821;19;20026;-68
2022/06/01 09:04:44;;;;;;;3.05;2.72;;;19.70;64.00;;;;;;9179583;19;20014;-68
2022/06/01 09:07:54;;;;;;;5.70;2.60;;;19.70;63.80;;;;;;9174556;19;20025;-71
2022/06/01 09:11:08;;;;;;;4.82;2.70;;;19.80;63.70;;;;;;9178901;19;20040;-69
2022/06/01 09:14:23;;;;;;;5.60;2.95;;;19.90;63.60;;;;;;9175668;19;20006;-68
2022/06/01 09:17:31;;;;;;;5.07;3.08;;;20.00;63.50;;;;;;9177720;19;20106;-69
2022/06/01 09:23:54;;;;;;;9.55;2.92;;;20.20;63.20;;;;;;9177433;19;20018;-69
2022/06/01 09:27:02;;;;;;;7.63;2.33;;;20.20;63.20;;;;;;9179580;19;20023;-70
2022/06/01 09:30:27;;;;;;;4.18;1.65;;;20.20;63.10;;;;;;9178676;19;20480;-68
2022/06/01 09:33:38;;;;;;;4.28;2.03;;;20.10;63.10;;;;;;9177321;19;20855;-69
2022/06/01 09:36:57;;;;;;;2.78;2.00;;;20.00;63.20;;;;;;9177572;19;20387;-66
2022/06/01 09:40:07;;;;;;;3.30;2.10;;;19.90;63.40;;;;;;9176331;19;20364;-70
2022/06/01 09:43:24;;;;;;;3.55;2.22;;;19.70;63.60;;;;;;9173710;19;20017;-68
2022/06/01 09:46:36;;;;;;;4.10;2.00;;;19.60;64.10;;;;;;9173922;19;20022;-67
2022/06/01 09:49:54;;;;;;;3.28;2.22;;;19.60;64.20;;;;;;9174228;19;20029;-67
2022/06/01 09:53:02;;;;;;;2.00;1.80;;;19.50;64.40;;;;;;9171349;19;20040;-66
2022/06/01 09:56:08;;;;;;;2.97;2.05;;;19.40;64.50;;;;;;9174853;19;20476;-69
2022/06/01 10:06:15;;;;;;;2.45;2.25;;;19.30;65.20;;;;;;9176572;19;20026;-68
2022/06/01 10:09:25;;;;;;;2.55;1.90;;;19.50;65.30;;;;;;9177922;19;20015;-67
2022/06/01 10:12:35;;;;;;;3.47;2.22;;;19.50;65.10;;;;;;9176386;19;20021;-68
2022/06/01 10:15:44;;;;;;;3.53;2.00;;;19.60;65.00;;;;;;9173863;19;20376;-69
2022/06/01 10:18:50;;;;;;;3.67;1.98;;;19.70;64.90;;;;;;9174416;19;20370;-66
2022/06/01 10:22:01;;;;;;;3.72;1.75;;;19.90;64.70;;;;;;9172471;19;20023;-68
2022/06/01 10:25:12;;;;;;;3.80;2.15;;;20.00;64.40;;;;;;9174691;19;20014;-67
2022/06/01 10:28:19;;;;;;;3.17;2.00;;;20.20;64.10;;;;;;9176004;19;20015;-68
2022/06/01 10:31:49;;;;;;;3.63;1.98;;;20.30;63.60;;;;;;9172812;19;20021;-67
2022/06/01 10:34:58;;;;;;;2.50;1.80;;;20.50;63.30;;;;;;9172343;19;20022;-67
2022/06/01 10:38:18;;;;;;;2.30;1.80;;;20.50;62.80;;;;;;9175522;19;20374;-67
2022/06/01 10:41:29;;;;;;;3.22;1.40;;;20.60;62.30;;;;;;9175302;19;20021;-66
2022/06/01 10:44:41;;;;;;;1.77;1.27;;;20.60;62.00;;;;;;9176630;19;20042;-67
2022/06/01 10:48:02;;;;;;;1.45;0.80;;;20.60;61.80;;;;;;9176738;19;20480;-67
2022/06/01 10:51:12;;;;;;;1.88;0.80;;;20.50;61.20;;;;;;9177736;19;20635;-67
2022/06/01 10:54:28;;;;;;;1.23;1.13;;;20.30;61.00;;;;;;9177655;19;20018;-67
2022/06/01 10:57:36;;;;;;;0.70;0.50;;;20.20;60.90;;;;;;9178898;19;20082;-66
2022/06/01 11:00:51;;;;;;;0.30;0.30;;;20.00;60.90;;;;;;9178957;19;20019;-66
2022/06/01 11:04:39;;;;;;;0.20;0.20;;;19.90;60.70;;;;;;9183295;19;20029;-66
2022/06/01 11:08:03;;;;;;;0.50;0.32;;;19.70;60.50;;;;;;9187484;19;20045;-66
2022/06/01 11:11:18;;;;;;;0.32;0.20;;;19.50;60.60;;;;;;9189501;19;20006;-67
2022/06/01 11:14:55;;;;;;;0.32;0.32;;;19.30;60.50;;;;;;9189876;19;20087;-67
2022/06/01 11:18:05;;;;;;;0.73;0.35;;;19.20;60.50;;;;;;9189334;19;20387;-66
2022/06/01 11:21:20;;;;;;;0.30;0.30;;;19.10;60.70;;;;;;9186175;19;20018;-66
2022/06/01 11:24:57;;;;;;;0.75;0.50;;;19.00;60.80;;;;;;9190751;19;20053;-68
2022/06/01 11:28:27;;;;;;;1.13;0.50;;;19.00;60.70;;;;;;9189536;19;20010;-66
2022/06/01 11:31:33;;;;;;;2.33;0.57;;;18.90;60.90;;;;;;9188485;19;20021;-66
2022/06/01 11:34:52;;;;;;;1.10;0.50;;;19.00;61.10;;;;;;9187321;19;20014;-66
2022/06/01 11:38:10;;;;;;;0.90;0.38;;;19.00;60.90;;;;;;9189487;19;20086;-69
2022/06/01 11:41:24;;;;;;;3.80;0.65;;;19.10;60.90;;;;;;9189540;19;20022;-67
2022/06/01 11:44:37;;;;;;;0.40;0.40;;;19.20;60.80;;;;;;9188878;19;20015;-67
2022/06/01 11:47:47;;;;;;;2.63;1.20;;;19.40;61.10;;;;;;9187453;19;20494;-68
2022/06/01 11:51:06;;;;;;;1.75;0.60;;;19.50;60.30;;;;;;9189947;19;20010;-66
2022/06/01 11:54:14;;;;;;;1.17;0.50;;;19.70;60.10;;;;;;9186967;19;20026;-67
2022/06/01 11:57:26;;;;;;;1.30;0.70;;;19.80;59.90;;;;;;9189862;19;20117;-67
2022/06/01 12:00:38;;;;;;;0.60;0.60;;;20.00;59.60;;;;;;9187181;19;20022;-68
2022/06/01 12:03:59;;;;;;;0.82;0.63;;;20.10;59.20;;;;;;9187088;19;20010;-66
2022/06/01 12:07:12;;;;;;;1.00;0.77;;;20.30;58.90;;;;;;9188625;19;20325;-67
2022/06/01 12:10:28;;;;;;;2.00;0.90;;;20.40;58.80;;;;;;9189216;19;20014;-68
2022/06/01 12:13:53;;;;;;;1.92;0.80;;;20.60;58.50;;;;;;9186915;19;20048;-68
2022/06/01 12:17:30;;;;;;;1.90;0.82;;;20.70;58.40;;;;;;9188250;19;20015;-68
2022/06/01 12:20:52;;;;;;;2.72;0.70;;;20.90;58.10;;;;;;9186159;19;20014;-68
2022/06/01 12:30:50;;;;;;;2.03;1.23;;;21.30;57.40;;;;;;9186555;19;20039;-67
2022/06/01 12:34:10;;;;;;;1.90;1.30;;;21.30;57.30;;;;;;9187617;19;20334;-68
2022/06/01 12:37:23;;;;;;;2.50;1.10;;;21.30;56.90;;;;;;9186622;19;20022;-67
2022/06/01 12:40:31;;;;;;;2.22;1.38;;;21.30;56.90;;;;;;9185966;19;20026;-67
2022/06/01 12:43:41;;;;;;;1.90;1.05;;;21.30;56.90;;;;;;9185539;19;20017;-67
2022/06/01 12:46:51;;;;;;;2.67;1.23;;;21.30;56.70;;;;;;9185638;19;20053;-67
2022/06/01 12:50:07;;;;;;;7.85;2.22;;;21.20;56.80;;;;;;9185376;19;20018;-68
2022/06/01 12:53:15;;;;;;;9.38;1.77;;;21.10;57.30;;;;;;9174365;19;20060;-68
2022/06/01 12:56:27;;;;;;;2.80;1.38;;;21.00;57.80;;;;;;9172921;19;21012;-68
2022/06/01 12:59:34;;;;;;;6.45;1.67;;;20.80;58.10;;;;;;9177165;19;20107;-67
2022/06/01 13:02:41;;;;;;;7.57;2.25;;;20.70;58.30;;;;;;9174957;19;20022;-67
2022/06/01 13:05:52;;;;;;;1.90;1.70;;;20.50;58.40;;;;;;9175875;19;20036;-66
2022/06/01 13:09:00;;;;;;;6.45;2.10;;;20.40;58.60;;;;;;9171048;19;20091;-67
2022/06/01 13:12:08;;;;;;;3.67;2.10;;;20.20;58.90;;;;;;9174296;19;20006;-66
2022/06/01 13:15:18;;;;;;;5.43;2.03;;;20.00;59.20;;;;;;9172321;19;20019;-67
2022/06/01 13:18:29;;;;;;;6.40;2.80;;;19.90;59.50;;;;;;9172947;19;20038;-66
2022/06/01 13:21:39;;;;;;;9.18;3.67;;;19.70;59.70;;;;;;9171091;19;20011;-65
2022/06/01 13:24:47;;;;;;;8.82;2.40;;;19.60;60.10;;;;;;9175572;19;20026;-66
2022/06/01 13:28:01;;;;;;;12.73;3.15;;;19.40;60.20;;;;;;9174576;19;20015;-68
2022/06/01 13:31:06;;;;;;;12.90;3.90;;;19.20;60.40;;;;;;9179589;19;20028;-69
2022/06/01 13:34:21;;;;;;;11.48;2.92;;;18.90;60.70;;;;;;9179374;19;20014;-68
2022/06/01 13:37:32;;;;;;;4.30;2.35;;;18.70;61.10;;;;;;9181286;19;20341;-68
2022/06/01 13:40:44;;;;;;;7.28;2.42;;;18.60;61.40;;;;;;9185641;19;20033;-68
2022/06/01 13:43:51;;;;;;;5.93;2.50;;;18.40;61.60;;;;;;9184098;19;20010;-68
2022/06/01 13:46:56;;;;;;;5.43;2.38;;;18.20;61.80;;;;;;9182670;19;20018;-70
2022/06/01 13:50:06;;;;;;;8.80;3.40;;;18.00;62.10;;;;;;9182621;19;20025;-69
2022/06/01 13:53:25;;;;;;;11.25;3.45;;;17.90;62.50;;;;;;9183257;19;20010;-68
2022/06/01 13:56:35;;;;;;;6.05;2.30;;;17.80;63.00;;;;;;9181852;19;20384;-68
2022/06/01 13:59:42;;;;;;;7.60;2.20;;;17.60;62.80;;;;;;9182598;19;20118;-67
2022/06/01 14:02:53;;;;;;;5.97;2.58;;;17.50;63.00;;;;;;9182769;19;20031;-69
2022/06/01 14:06:06;;;;;;;5.03;2.60;;;17.30;63.30;;;;;;9182577;19;20007;-70
2022/06/01 14:09:16;;;;;;;4.38;2.60;;;17.30;63.70;;;;;;9184497;19;20014;-67
2022/06/01 14:12:23;;;;;;;4.47;3.05;;;17.10;63.80;;;;;;9183847;19;20045;-68
2022/06/01 14:15:28;;;;;;;5.95;3.33;;;17.00;64.00;;;;;;9181315;19;20011;-68
2022/06/01 14:18:35;;;;;;;4.88;2.70;;;17.00;64.40;;;;;;9182448;19;20235;-70
2022/06/01 14:21:41;;;;;;;3.00;2.75;;;16.90;64.80;;;;;;9178591;19;20015;-68
2022/06/01 14:31:41;;;;;;;7.28;3.90;;;16.70;65.10;;;;;;9178726;19;20015;-68
2022/06/01 14:34:46;;;;;;;5.43;3.53;;;16.70;65.40;;;;;;9181758;19;20013;-68
2022/06/01 14:37:52;;;;;;;6.82;3.90;;;16.70;65.50;;;;;;9181812;19;20033;-69
2022/06/01 14:41:03;;;;;;;5.88;4.03;;;16.60;65.70;;;;;;9183854;19;20086;-68
2022/06/01 14:44:14;;;;;;;5.65;3.70;;;16.60;66.00;;;;;;9183552;19;20014;-68
2022/06/01 14:47:19;;;;;;;6.30;3.92;;;16.60;66.10;;;;;;9181065;19;20018;-69
2022/06/01 14:50:25;;;;;;;5.03;4.05;;;16.50;66.10;;;;;;9183057;19;20010;-69
2022/06/01 14:53:34;;;;;;;9.10;4.60;;;16.50;66.30;;;;;;9180793;19;20035;-68
2022/06/01 14:56:42;;;;;;;5.72;5.15;;;16.50;66.70;;;;;;9180673;19;20017;-69
2022/06/01 14:59:49;;;;;;;9.32;4.97;;;16.50;67.60;;;;;;9183236;19;20014;-68
2022/06/01 15:02:58;;;;;;;4.45;3.92;;;16.50;67.00;;;;;;9182044;19;20014;-67
2022/06/01 15:06:03;;;;;;;7.53;5.22;;;16.60;67.20;;;;;;9180845;19;20106;-68
2022/06/01 15:09:09;;;;;;;10.05;3.90;;;16.60;67.10;;;;;;9175697;19;20018;-67
2022/06/01 15:12:17;;;;;;;4.18;2.42;;;16.70;67.20;;;;;;9174005;19;20051;-70
2022/06/01 15:15:22;;;;;;;3.08;1.73;;;16.90;67.30;;;;;;9176269;19;20062;-67
2022/06/01 15:18:28;;;;;;;1.98;1.58;;;16.90;67.10;;;;;;9176220;19;20423;-70
2022/06/01 15:21:33;;;;;;;1.90;1.80;;;17.00;66.90;;;;;;9170950;19;20025;-69
2022/06/01 15:24:38;;;;;;;2.15;1.60;;;17.10;66.70;;;;;;9175282;19;20024;-68
2022/06/01 15:27:46;;;;;;;2.40;1.70;;;17.20;66.50;;;;;;9175071;19;20014;-67
2022/06/01 15:40:50;;;;;;;1.30;1.20;;;17.20;65.70;;;;;;9173786;19;20118;-67
2022/06/01 15:43:59;;;;;;;3.03;0.85;;;17.30;65.70;;;;;;9176964;19;20010;-68
2022/06/01 15:47:08;;;;;;;2.72;0.90;;;17.20;65.50;;;;;;9174260;19;20049;-69
2022/06/01 15:50:16;;;;;;;0.90;0.80;;;17.20;65.20;;;;;;9178846;19;20025;-67
2022/06/01 15:53:24;;;;;;;1.55;0.98;;;17.20;65.10;;;;;;9182813;19;20010;-69
2022/06/01 15:56:36;;;;;;;1.63;1.02;;;17.20;64.90;;;;;;9175947;19;20027;-69
2022/06/01 15:59:44;;;;;;;1.50;1.40;;;17.20;64.80;;;;;;9179138;19;20019;-69
2022/06/01 16:02:52;;;;;;;3.80;1.60;;;17.20;64.80;;;;;;9180325;19;20492;-67
2022/06/01 16:05:58;;;;;;;2.10;1.60;;;17.10;64.80;;;;;;9178603;19;20474;-66
2022/06/01 16:09:03;;;;;;;3.33;1.27;;;17.10;64.70;;;;;;9181977;19;20014;-65
2022/06/01 16:12:09;;;;;;;3.30;1.35;;;17.10;64.70;;;;;;9182282;19;20015;-66
2022/06/01 16:15:17;;;;;;;1.23;1.00;;;17.10;64.70;;;;;;9180299;19;20021;-66
2022/06/01 16:18:23;;;;;;;2.47;1.05;;;17.10;64.80;;;;;;9184566;19;20070;-67
2022/06/01 16:21:28;;;;;;;1.58;1.05;;;17.10;64.80;;;;;;9180955;19;20543;-66
2022/06/01 16:24:33;;;;;;;1.25;1.15;;;17.10;64.70;;;;;;9183155;19;20479;-65
2022/06/01 16:27:40;;;;;;;0.70;0.70;;;17.10;64.60;;;;;;9181988;19;20464;-66
2022/06/01 16:30:47;;;;;;;1.50;1.10;;;17.10;64.40;;;;;;9181765;19;20018;-65
2022/06/01 16:33:54;;;;;;;1.35;0.95;;;17.10;64.40;;;;;;9183416;19;20021;-66
2022/06/01 16:36:59;;;;;;;0.68;0.68;;;17.10;64.40;;;;;;9181749;19;20015;-67
2022/06/01 16:40:04;;;;;;;0.75;0.70;;;17.10;64.20;;;;;;9182447;19;20506;-70
2022/06/01 16:43:09;;;;;;;2.08;0.70;;;17.10;64.10;;;;;;9183551;19;20014;-67
2022/06/01 16:46:17;;;;;;;0.60;0.50;;;17.10;64.00;;;;;;9181159;19;20053;-67
2022/06/01 16:49:24;;;;;;;1.33;0.75;;;17.10;63.90;;;;;;9183522;19;20018;-65
2022/06/01 16:52:29;;;;;;;0.57;0.57;;;17.10;63.70;;;;;;9180787;19;20014;-67
2022/06/01 16:55:35;;;;;;;0.75;0.65;;;17.10;63.70;;;;;;9181936;19;20011;-65
2022/06/01 16:58:40;;;;;;;0.85;0.80;;;17.00;63.60;;;;;;9182996;19;20014;-66
2022/06/01 17:01:48;;;;;;;1.13;0.65;;;17.00;63.60;;;;;;9182086;19;20019;-65
2022/06/01 17:04:55;;;;;;;1.95;0.70;;;17.00;63.60;;;;;;9181448;19;20022;-67